sensor_id;sensor_type;location;lat;lon;timestamp;temperature;humidity
29571;DHT22;16814;52.118;11.436;2023-04-16T00:00:51;8.60;99.90
29571;DHT22;16814;52.118;11.436;2023-04-16T00:03:18;8.60;99.90
29571;DHT22;16814;52.118;11.436;2023-04-16T00:05:45;8.60;99.90
29571;DHT22;16814;52.118;11.436;2023-04-16T00:08:13;8.60;99.90
29571;DHT22;16814;52.118;11.436;2023-04-16T00:10:40;8.60;99.90
29571;DHT22;16814;52.118;11.436;2023-04-16T00:13:06;8.60;99.90
29571;DHT22;16814;52.118;11.436;2023-04-16T00:15:33;8.60;99.90
29571;DHT22;16814;52.118;11.436;2023-04-16T00:18:01;8.60;99.90
29571;DHT22;16814;52.118;11.436;2023-04-16T00:20:28;8.60;99.90
29571;DHT22;16814;52.118;11.436;2023-04-16T00:22:54;8.60;99.90
29571;DHT22;16814;52.118;11.436;2023-04-16T00:25:22;8.60;99.90
29571;DHT22;16814;52.118;11.436;2023-04-16T00:27:49;8.60;99.90
29571;DHT22;16814;52.118;11.436;2023-04-16T00:30:17;8.60;99.90
29571;DHT22;16814;52.118;11.436;2023-04-16T00:32:45;8.50;99.90
29571;DHT22;16814;52.118;11.436;2023-04-16T00:35:13;8.50;99.90
29571;DHT22;16814;52.118;11.436;2023-04-16T00:37:40;8.50;99.90
29571;DHT22;16814;52.118;11.436;2023-04-16T00:40:08;8.50;99.90
29571;DHT22;16814;52.118;11.436;2023-04-16T00:42:36;8.40;99.90
29571;DHT22;16814;52.118;11.436;2023-04-16T00:45:04;8.50;99.90
29571;DHT22;16814;52.118;11.436;2023-04-16T00:47:32;8.40;99.90
29571;DHT22;16814;52.118;11.436;2023-04-16T00:50:02;8.30;99.90
29571;DHT22;16814;52.118;11.436;2023-04-16T00:52:35;8.20;99.90
29571;DHT22;16814;52.118;11.436;2023-04-16T00:55:01;8.30;99.90
29571;DHT22;16814;52.118;11.436;2023-04-16T00:57:29;8.40;99.90
29571;DHT22;16814;52.118;11.436;2023-04-16T00:59:58;8.30;99.90
29571;DHT22;16814;52.118;11.436;2023-04-16T01:02:25;8.40;99.90
29571;DHT22;16814;52.118;11.436;2023-04-16T01:04:53;8.30;99.90
29571;DHT22;16814;52.118;11.436;2023-04-16T01:07:19;8.30;99.90
29571;DHT22;16814;52.118;11.436;2023-04-16T01:09:46;8.30;99.90
29571;DHT22;16814;52.118;11.436;2023-04-16T01:12:12;8.20;99.90
29571;DHT22;16814;52.118;11.436;2023-04-16T01:14:40;8.20;99.90
29571;DHT22;16814;52.118;11.436;2023-04-16T01:17:09;8.30;99.90
29571;DHT22;16814;52.118;11.436;2023-04-16T01:19:36;8.30;99.90
29571;DHT22;16814;52.118;11.436;2023-04-16T01:22:04;8.30;99.90
29571;DHT22;16814;52.118;11.436;2023-04-16T01:24:31;8.30;99.90
29571;DHT22;16814;52.118;11.436;2023-04-16T01:26:59;8.30;99.90
29571;DHT22;16814;52.118;11.436;2023-04-16T01:29:26;8.30;99.90
29571;DHT22;16814;52.118;11.436;2023-04-16T01:31:53;8.20;99.90
29571;DHT22;16814;52.118;11.436;2023-04-16T01:34:21;8.20;99.90
29571;DHT22;16814;52.118;11.436;2023-04-16T01:36:47;8.20;99.90
29571;DHT22;16814;52.118;11.436;2023-04-16T01:39:14;8.10;99.90
29571;DHT22;16814;52.118;11.436;2023-04-16T01:41:43;8.10;99.90
29571;DHT22;16814;52.118;11.436;2023-04-16T01:44:09;8.10;99.90
29571;DHT22;16814;52.118;11.436;2023-04-16T01:46:38;8.10;99.90
29571;DHT22;16814;52.118;11.436;2023-04-16T01:49:04;8.00;99.90
29571;DHT22;16814;52.118;11.436;2023-04-16T01:51:32;8.00;99.90
29571;DHT22;16814;52.118;11.436;2023-04-16T01:53:59;8.00;99.90
29571;DHT22;16814;52.118;11.436;2023-04-16T01:56:25;7.90;99.90
29571;DHT22;16814;52.118;11.436;2023-04-16T01:58:52;7.90;99.90
29571;DHT22;16814;52.118;11.436;2023-04-16T02:01:18;7.90;99.90
29571;DHT22;16814;52.118;11.436;2023-04-16T02:03:45;8.00;99.90
29571;DHT22;16814;52.118;11.436;2023-04-16T02:06:16;8.00;99.90
29571;DHT22;16814;52.118;11.436;2023-04-16T02:08:43;7.90;99.90
29571;DHT22;16814;52.118;11.436;2023-04-16T02:11:11;7.90;99.90
29571;DHT22;16814;52.118;11.436;2023-04-16T02:13:37;7.90;99.90
29571;DHT22;16814;52.118;11.436;2023-04-16T02:16:04;7.90;99.90
29571;DHT22;16814;52.118;11.436;2023-04-16T02:18:33;7.80;99.90
29571;DHT22;16814;52.118;11.436;2023-04-16T02:21:00;7.80;99.90
29571;DHT22;16814;52.118;11.436;2023-04-16T02:23:27;7.80;99.90
29571;DHT22;16814;52.118;11.436;2023-04-16T02:25:56;7.80;99.90
29571;DHT22;16814;52.118;11.436;2023-04-16T02:28:23;7.80;99.90
29571;DHT22;16814;52.118;11.436;2023-04-16T02:30:52;7.80;99.90
29571;DHT22;16814;52.118;11.436;2023-04-16T02:33:18;7.80;99.90
29571;DHT22;16814;52.118;11.436;2023-04-16T02:35:45;7.80;99.90
29571;DHT22;16814;52.118;11.436;2023-04-16T02:38:15;7.80;99.90
29571;DHT22;16814;52.118;11.436;2023-04-16T02:40:42;7.80;99.90
29571;DHT22;16814;52.118;11.436;2023-04-16T02:43:09;7.80;99.90
29571;DHT22;16814;52.118;11.436;2023-04-16T02:45:35;7.80;99.90
29571;DHT22;16814;52.118;11.436;2023-04-16T02:48:03;7.70;99.90
29571;DHT22;16814;52.118;11.436;2023-04-16T02:50:30;7.70;99.90
29571;DHT22;16814;52.118;11.436;2023-04-16T02:52:55;7.70;99.90
29571;DHT22;16814;52.118;11.436;2023-04-16T02:55:22;7.70;99.90
29571;DHT22;16814;52.118;11.436;2023-04-16T02:57:47;7.70;99.90
29571;DHT22;16814;52.118;11.436;2023-04-16T03:00:15;7.70;99.90
29571;DHT22;16814;52.118;11.436;2023-04-16T03:02:41;7.70;99.90
29571;DHT22;16814;52.118;11.436;2023-04-16T03:05:14;7.80;99.90
29571;DHT22;16814;52.118;11.436;2023-04-16T03:07:39;7.80;99.90
29571;DHT22;16814;52.118;11.436;2023-04-16T03:10:07;7.80;99.90
29571;DHT22;16814;52.118;11.436;2023-04-16T03:12:36;7.80;99.90
29571;DHT22;16814;52.118;11.436;2023-04-16T03:15:03;7.80;99.90
29571;DHT22;16814;52.118;11.436;2023-04-16T03:17:29;7.80;99.90
29571;DHT22;16814;52.118;11.436;2023-04-16T03:19:54;7.70;99.90
29571;DHT22;16814;52.118;11.436;2023-04-16T03:22:21;7.70;99.90
29571;DHT22;16814;52.118;11.436;2023-04-16T03:24:48;7.70;99.90
29571;DHT22;16814;52.118;11.436;2023-04-16T03:27:14;7.70;99.90
29571;DHT22;16814;52.118;11.436;2023-04-16T03:29:39;7.70;99.90
29571;DHT22;16814;52.118;11.436;2023-04-16T03:32:08;7.80;99.90
29571;DHT22;16814;52.118;11.436;2023-04-16T03:34:34;7.70;99.90
29571;DHT22;16814;52.118;11.436;2023-04-16T03:37:03;7.80;99.90
29571;DHT22;16814;52.118;11.436;2023-04-16T03:39:32;7.80;99.90
29571;DHT22;16814;52.118;11.436;2023-04-16T03:42:00;7.70;99.90
29571;DHT22;16814;52.118;11.436;2023-04-16T03:44:31;7.80;99.90
29571;DHT22;16814;52.118;11.436;2023-04-16T03:47:00;7.80;99.90
29571;DHT22;16814;52.118;11.436;2023-04-16T03:49:32;7.70;99.90
29571;DHT22;16814;52.118;11.436;2023-04-16T03:51:57;7.80;99.90
29571;DHT22;16814;52.118;11.436;2023-04-16T03:54:24;7.70;99.90
29571;DHT22;16814;52.118;11.436;2023-04-16T03:56:52;7.70;99.90
29571;DHT22;16814;52.118;11.436;2023-04-16T03:59:18;7.70;99.90
29571;DHT22;16814;52.118;11.436;2023-04-16T04:01:44;7.60;99.90
29571;DHT22;16814;52.118;11.436;2023-04-16T04:04:10;7.70;99.90
29571;DHT22;16814;52.118;11.436;2023-04-16T04:06:38;7.60;99.90
29571;DHT22;16814;52.118;11.436;2023-04-16T04:09:04;7.60;99.90
29571;DHT22;16814;52.118;11.436;2023-04-16T04:11:30;7.60;99.90
29571;DHT22;16814;52.118;11.436;2023-04-16T04:13:57;7.70;99.90
29571;DHT22;16814;52.118;11.436;2023-04-16T04:16:25;7.70;99.90
29571;DHT22;16814;52.118;11.436;2023-04-16T04:18:52;7.70;99.90
29571;DHT22;16814;52.118;11.436;2023-04-16T04:21:18;7.70;99.90
29571;DHT22;16814;52.118;11.436;2023-04-16T04:23:44;7.70;99.90
29571;DHT22;16814;52.118;11.436;2023-04-16T04:26:12;7.70;99.90
29571;DHT22;16814;52.118;11.436;2023-04-16T04:28:38;7.70;99.90
29571;DHT22;16814;52.118;11.436;2023-04-16T04:31:06;7.60;99.90
29571;DHT22;16814;52.118;11.436;2023-04-16T04:33:40;7.50;99.90
29571;DHT22;16814;52.118;11.436;2023-04-16T04:36:07;7.60;99.90
29571;DHT22;16814;52.118;11.436;2023-04-16T04:38:34;7.60;99.90
29571;DHT22;16814;52.118;11.436;2023-04-16T04:41:01;7.60;99.90
29571;DHT22;16814;52.118;11.436;2023-04-16T04:43:26;7.50;99.90
29571;DHT22;16814;52.118;11.436;2023-04-16T04:45:52;7.60;99.90
29571;DHT22;16814;52.118;11.436;2023-04-16T04:48:20;7.50;99.90
29571;DHT22;16814;52.118;11.436;2023-04-16T04:50:51;7.60;99.90
29571;DHT22;16814;52.118;11.436;2023-04-16T04:53:18;7.60;99.90
29571;DHT22;16814;52.118;11.436;2023-04-16T04:55:45;7.60;99.90
29571;DHT22;16814;52.118;11.436;2023-04-16T04:58:11;7.60;99.90
29571;DHT22;16814;52.118;11.436;2023-04-16T05:00:39;8.20;99.90
29571;DHT22;16814;52.118;11.436;2023-04-16T05:03:09;7.50;99.90
29571;DHT22;16814;52.118;11.436;2023-04-16T05:05:39;7.60;99.90
29571;DHT22;16814;52.118;11.436;2023-04-16T05:08:11;7.40;99.90
29571;DHT22;16814;52.118;11.436;2023-04-16T05:10:39;7.40;99.90
29571;DHT22;16814;52.118;11.436;2023-04-16T05:13:05;7.40;99.90
29571;DHT22;16814;52.118;11.436;2023-04-16T05:15:30;7.50;99.90
29571;DHT22;16814;52.118;11.436;2023-04-16T05:17:59;7.40;99.90
29571;DHT22;16814;52.118;11.436;2023-04-16T05:20:26;7.40;99.90
29571;DHT22;16814;52.118;11.436;2023-04-16T05:22:53;7.40;99.90
29571;DHT22;16814;52.118;11.436;2023-04-16T05:25:20;7.30;99.90
29571;DHT22;16814;52.118;11.436;2023-04-16T05:27:46;7.40;99.90
29571;DHT22;16814;52.118;11.436;2023-04-16T05:30:14;7.40;99.90
29571;DHT22;16814;52.118;11.436;2023-04-16T05:32:41;7.40;99.90
29571;DHT22;16814;52.118;11.436;2023-04-16T05:35:08;7.40;99.90
29571;DHT22;16814;52.118;11.436;2023-04-16T05:37:35;7.30;99.90
29571;DHT22;16814;52.118;11.436;2023-04-16T05:40:02;7.40;99.90
29571;DHT22;16814;52.118;11.436;2023-04-16T05:42:29;7.30;99.90
29571;DHT22;16814;52.118;11.436;2023-04-16T05:44:57;7.30;99.90
29571;DHT22;16814;52.118;11.436;2023-04-16T05:47:24;7.30;99.90
29571;DHT22;16814;52.118;11.436;2023-04-16T05:49:52;7.20;99.90
29571;DHT22;16814;52.118;11.436;2023-04-16T05:52:20;7.20;99.90
29571;DHT22;16814;52.118;11.436;2023-04-16T05:54:47;7.20;99.90
29571;DHT22;16814;52.118;11.436;2023-04-16T05:57:13;7.30;99.90
29571;DHT22;16814;52.118;11.436;2023-04-16T05:59:48;7.30;99.90
29571;DHT22;16814;52.118;11.436;2023-04-16T06:02:17;7.20;99.90
29571;DHT22;16814;52.118;11.436;2023-04-16T06:04:42;7.20;99.90
29571;DHT22;16814;52.118;11.436;2023-04-16T06:07:09;7.20;99.90
29571;DHT22;16814;52.118;11.436;2023-04-16T06:09:35;7.20;99.90
29571;DHT22;16814;52.118;11.436;2023-04-16T06:12:02;7.20;99.90
29571;DHT22;16814;52.118;11.436;2023-04-16T06:14:27;7.20;99.90
29571;DHT22;16814;52.118;11.436;2023-04-16T06:16:54;7.30;99.90
29571;DHT22;16814;52.118;11.436;2023-04-16T06:19:22;7.30;99.90
29571;DHT22;16814;52.118;11.436;2023-04-16T06:21:53;7.30;99.90
29571;DHT22;16814;52.118;11.436;2023-04-16T06:24:20;7.30;99.90
29571;DHT22;16814;52.118;11.436;2023-04-16T06:26:48;7.30;99.90
29571;DHT22;16814;52.118;11.436;2023-04-16T06:29:15;7.30;99.90
29571;DHT22;16814;52.118;11.436;2023-04-16T06:31:47;7.30;99.90
29571;DHT22;16814;52.118;11.436;2023-04-16T06:34:13;7.30;99.90
29571;DHT22;16814;52.118;11.436;2023-04-16T06:36:39;7.30;99.90
29571;DHT22;16814;52.118;11.436;2023-04-16T06:39:07;7.40;99.90
29571;DHT22;16814;52.118;11.436;2023-04-16T06:41:33;7.40;99.90
29571;DHT22;16814;52.118;11.436;2023-04-16T06:44:00;7.30;99.90
29571;DHT22;16814;52.118;11.436;2023-04-16T06:46:25;7.40;99.90
29571;DHT22;16814;52.118;11.436;2023-04-16T06:48:53;7.40;99.90
29571;DHT22;16814;52.118;11.436;2023-04-16T06:51:22;7.50;99.90
29571;DHT22;16814;52.118;11.436;2023-04-16T06:53:49;7.50;99.90
29571;DHT22;16814;52.118;11.436;2023-04-16T06:56:16;7.40;99.90
29571;DHT22;16814;52.118;11.436;2023-04-16T06:58:43;7.40;99.90
29571;DHT22;16814;52.118;11.436;2023-04-16T07:01:11;7.30;99.90
29571;DHT22;16814;52.118;11.436;2023-04-16T07:03:39;7.40;99.90
29571;DHT22;16814;52.118;11.436;2023-04-16T07:06:06;7.40;99.90
29571;DHT22;16814;52.118;11.436;2023-04-16T07:08:32;7.30;99.90
29571;DHT22;16814;52.118;11.436;2023-04-16T07:10:58;7.30;99.90
29571;DHT22;16814;52.118;11.436;2023-04-16T07:13:24;7.40;99.90
29571;DHT22;16814;52.118;11.436;2023-04-16T07:15:50;7.40;99.90
29571;DHT22;16814;52.118;11.436;2023-04-16T07:18:17;7.50;99.90
29571;DHT22;16814;52.118;11.436;2023-04-16T07:20:43;7.40;99.90
29571;DHT22;16814;52.118;11.436;2023-04-16T07:23:11;7.40;99.90
29571;DHT22;16814;52.118;11.436;2023-04-16T07:25:37;7.40;99.90
29571;DHT22;16814;52.118;11.436;2023-04-16T07:28:04;7.30;99.90
29571;DHT22;16814;52.118;11.436;2023-04-16T07:30:31;7.40;99.90
29571;DHT22;16814;52.118;11.436;2023-04-16T07:33:05;7.50;99.90
29571;DHT22;16814;52.118;11.436;2023-04-16T07:35:32;7.50;99.90
29571;DHT22;16814;52.118;11.436;2023-04-16T07:37:58;7.60;99.90
29571;DHT22;16814;52.118;11.436;2023-04-16T07:40:25;7.60;99.90
29571;DHT22;16814;52.118;11.436;2023-04-16T07:42:55;7.60;99.90
29571;DHT22;16814;52.118;11.436;2023-04-16T07:45:24;7.60;99.90
29571;DHT22;16814;52.118;11.436;2023-04-16T07:47:49;7.60;99.90
29571;DHT22;16814;52.118;11.436;2023-04-16T07:50:16;7.60;99.90
29571;DHT22;16814;52.118;11.436;2023-04-16T07:52:45;7.60;99.90
29571;DHT22;16814;52.118;11.436;2023-04-16T07:55:12;7.60;99.90
29571;DHT22;16814;52.118;11.436;2023-04-16T07:57:39;7.70;99.90
29571;DHT22;16814;52.118;11.436;2023-04-16T08:00:08;7.70;99.90
29571;DHT22;16814;52.118;11.436;2023-04-16T08:02:36;7.80;99.90
29571;DHT22;16814;52.118;11.436;2023-04-16T08:05:03;7.80;99.90
29571;DHT22;16814;52.118;11.436;2023-04-16T08:07:32;7.70;99.90
29571;DHT22;16814;52.118;11.436;2023-04-16T08:09:58;7.80;99.90
29571;DHT22;16814;52.118;11.436;2023-04-16T08:12:24;7.90;99.90
29571;DHT22;16814;52.118;11.436;2023-04-16T08:14:50;7.90;99.90
29571;DHT22;16814;52.118;11.436;2023-04-16T08:17:17;7.90;99.90
29571;DHT22;16814;52.118;11.436;2023-04-16T08:19:45;7.90;99.90
29571;DHT22;16814;52.118;11.436;2023-04-16T08:22:13;7.90;99.90
29571;DHT22;16814;52.118;11.436;2023-04-16T08:24:39;7.90;99.90
29571;DHT22;16814;52.118;11.436;2023-04-16T08:27:06;7.80;99.90
29571;DHT22;16814;52.118;11.436;2023-04-16T08:29:37;7.90;99.90
29571;DHT22;16814;52.118;11.436;2023-04-16T08:32:09;8.10;99.90
29571;DHT22;16814;52.118;11.436;2023-04-16T08:34:38;8.00;99.90
29571;DHT22;16814;52.118;11.436;2023-04-16T08:37:05;8.00;99.90
29571;DHT22;16814;52.118;11.436;2023-04-16T08:39:33;8.00;99.90
29571;DHT22;16814;52.118;11.436;2023-04-16T08:42:03;8.10;99.90
29571;DHT22;16814;52.118;11.436;2023-04-16T08:44:42;8.10;99.90
29571;DHT22;16814;52.118;11.436;2023-04-16T08:47:13;8.10;99.90
29571;DHT22;16814;52.118;11.436;2023-04-16T08:49:44;8.00;99.90
29571;DHT22;16814;52.118;11.436;2023-04-16T08:52:19;8.00;99.90
29571;DHT22;16814;52.118;11.436;2023-04-16T08:57:22;7.90;99.90
29571;DHT22;16814;52.118;11.436;2023-04-16T08:59:59;7.90;99.90
29571;DHT22;16814;52.118;11.436;2023-04-16T09:02:28;8.00;99.90
29571;DHT22;16814;52.118;11.436;2023-04-16T09:04:59;8.10;99.90
29571;DHT22;16814;52.118;11.436;2023-04-16T09:07:27;8.00;99.90
29571;DHT22;16814;52.118;11.436;2023-04-16T09:09:59;8.10;99.90
29571;DHT22;16814;52.118;11.436;2023-04-16T09:12:29;8.10;99.90
29571;DHT22;16814;52.118;11.436;2023-04-16T09:14:57;8.10;99.90
29571;DHT22;16814;52.118;11.436;2023-04-16T09:17:25;8.10;99.90
29571;DHT22;16814;52.118;11.436;2023-04-16T09:19:51;8.20;99.90
29571;DHT22;16814;52.118;11.436;2023-04-16T09:22:19;8.30;99.90
29571;DHT22;16814;52.118;11.436;2023-04-16T09:24:49;8.40;99.90
29571;DHT22;16814;52.118;11.436;2023-04-16T09:27:16;8.30;99.90
29571;DHT22;16814;52.118;11.436;2023-04-16T09:29:44;8.30;99.90
29571;DHT22;16814;52.118;11.436;2023-04-16T09:32:12;8.30;99.90
29571;DHT22;16814;52.118;11.436;2023-04-16T09:34:57;8.30;99.90
29571;DHT22;16814;52.118;11.436;2023-04-16T09:37:25;8.40;99.90
29571;DHT22;16814;52.118;11.436;2023-04-16T09:40:02;8.30;99.90
29571;DHT22;16814;52.118;11.436;2023-04-16T09:42:34;8.30;99.90
29571;DHT22;16814;52.118;11.436;2023-04-16T09:45:01;8.40;99.90
29571;DHT22;16814;52.118;11.436;2023-04-16T09:47:42;8.50;99.90
29571;DHT22;16814;52.118;11.436;2023-04-16T09:50:19;8.50;99.90
29571;DHT22;16814;52.118;11.436;2023-04-16T09:52:49;8.50;99.90
29571;DHT22;16814;52.118;11.436;2023-04-16T09:55:26;8.50;99.90
29571;DHT22;16814;52.118;11.436;2023-04-16T09:57:59;8.60;99.90
29571;DHT22;16814;52.118;11.436;2023-04-16T10:00:28;8.60;99.90
29571;DHT22;16814;52.118;11.436;2023-04-16T10:03:03;8.60;99.90
29571;DHT22;16814;52.118;11.436;2023-04-16T10:05:31;8.60;99.90
29571;DHT22;16814;52.118;11.436;2023-04-16T10:08:01;8.70;99.90
29571;DHT22;16814;52.118;11.436;2023-04-16T10:10:28;8.60;99.90
29571;DHT22;16814;52.118;11.436;2023-04-16T10:12:55;8.60;99.90
29571;DHT22;16814;52.118;11.436;2023-04-16T10:15:23;8.70;99.90
29571;DHT22;16814;52.118;11.436;2023-04-16T10:17:50;8.70;99.90
29571;DHT22;16814;52.118;11.436;2023-04-16T10:20:19;8.80;99.90
29571;DHT22;16814;52.118;11.436;2023-04-16T10:22:46;8.80;99.90
29571;DHT22;16814;52.118;11.436;2023-04-16T10:25:12;8.90;99.90
29571;DHT22;16814;52.118;11.436;2023-04-16T10:27:39;8.90;99.90
29571;DHT22;16814;52.118;11.436;2023-04-16T10:30:07;9.00;99.90
29571;DHT22;16814;52.118;11.436;2023-04-16T10:32:37;9.00;99.90
29571;DHT22;16814;52.118;11.436;2023-04-16T10:35:05;9.00;99.90
29571;DHT22;16814;52.118;11.436;2023-04-16T10:37:36;9.00;99.90
29571;DHT22;16814;52.118;11.436;2023-04-16T10:40:24;9.10;99.90
29571;DHT22;16814;52.118;11.436;2023-04-16T10:42:58;9.10;99.90
29571;DHT22;16814;52.118;11.436;2023-04-16T10:45:42;9.10;99.90
29571;DHT22;16814;52.118;11.436;2023-04-16T10:48:07;9.30;99.90
29571;DHT22;16814;52.118;11.436;2023-04-16T10:50:35;9.30;99.90
29571;DHT22;16814;52.118;11.436;2023-04-16T10:53:23;9.30;99.90
29571;DHT22;16814;52.118;11.436;2023-04-16T10:55:56;9.10;99.90
29571;DHT22;16814;52.118;11.436;2023-04-16T10:58:30;9.10;99.90
29571;DHT22;16814;52.118;11.436;2023-04-16T11:01:05;9.20;99.90
29571;DHT22;16814;52.118;11.436;2023-04-16T11:03:40;8.90;99.90
29571;DHT22;16814;52.118;11.436;2023-04-16T11:06:22;9.00;99.90
29571;DHT22;16814;52.118;11.436;2023-04-16T11:08:50;9.10;99.90
29571;DHT22;16814;52.118;11.436;2023-04-16T11:11:18;9.10;99.90
29571;DHT22;16814;52.118;11.436;2023-04-16T11:13:47;9.10;99.90
29571;DHT22;16814;52.118;11.436;2023-04-16T11:16:16;9.10;99.90
29571;DHT22;16814;52.118;11.436;2023-04-16T11:18:45;9.20;99.90
29571;DHT22;16814;52.118;11.436;2023-04-16T11:21:11;9.30;99.90
29571;DHT22;16814;52.118;11.436;2023-04-16T11:23:50;9.20;99.90
29571;DHT22;16814;52.118;11.436;2023-04-16T11:26:25;9.10;99.90
29571;DHT22;16814;52.118;11.436;2023-04-16T11:28:53;9.20;99.90
29571;DHT22;16814;52.118;11.436;2023-04-16T11:31:19;9.20;99.90
29571;DHT22;16814;52.118;11.436;2023-04-16T11:33:47;9.30;99.90
29571;DHT22;16814;52.118;11.436;2023-04-16T11:36:14;9.30;99.90
29571;DHT22;16814;52.118;11.436;2023-04-16T11:38:40;9.40;99.90
29571;DHT22;16814;52.118;11.436;2023-04-16T11:41:08;9.30;99.90
29571;DHT22;16814;52.118;11.436;2023-04-16T11:43:35;9.20;99.90
29571;DHT22;16814;52.118;11.436;2023-04-16T11:46:05;9.20;99.90
29571;DHT22;16814;52.118;11.436;2023-04-16T11:48:51;9.10;99.90
29571;DHT22;16814;52.118;11.436;2023-04-16T11:51:20;9.00;99.90
29571;DHT22;16814;52.118;11.436;2023-04-16T11:53:53;9.10;99.90
29571;DHT22;16814;52.118;11.436;2023-04-16T11:56:34;9.10;99.90
29571;DHT22;16814;52.118;11.436;2023-04-16T12:01:39;9.00;99.90
29571;DHT22;16814;52.118;11.436;2023-04-16T12:04:05;9.00;99.90
29571;DHT22;16814;52.118;11.436;2023-04-16T12:06:33;9.00;99.90
29571;DHT22;16814;52.118;11.436;2023-04-16T12:09:22;9.00;99.90
29571;DHT22;16814;52.118;11.436;2023-04-16T12:11:49;9.10;99.90
29571;DHT22;16814;52.118;11.436;2023-04-16T12:14:25;9.10;99.90
29571;DHT22;16814;52.118;11.436;2023-04-16T12:16:51;9.20;99.90
29571;DHT22;16814;52.118;11.436;2023-04-16T12:19:21;9.10;99.90
29571;DHT22;16814;52.118;11.436;2023-04-16T12:21:55;9.20;99.90
29571;DHT22;16814;52.118;11.436;2023-04-16T12:24:30;9.20;99.90
29571;DHT22;16814;52.118;11.436;2023-04-16T12:26:56;9.20;99.90
29571;DHT22;16814;52.118;11.436;2023-04-16T12:29:28;9.10;99.90
29571;DHT22;16814;52.118;11.436;2023-04-16T12:31:54;9.10;99.90
29571;DHT22;16814;52.118;11.436;2023-04-16T12:34:22;9.10;99.90
29571;DHT22;16814;52.118;11.436;2023-04-16T12:37:05;9.10;99.90
29571;DHT22;16814;52.118;11.436;2023-04-16T12:39:31;9.20;99.90
29571;DHT22;16814;52.118;11.436;2023-04-16T12:41:59;9.20;99.90
29571;DHT22;16814;52.118;11.436;2023-04-16T12:44:29;9.30;99.90
29571;DHT22;16814;52.118;11.436;2023-04-16T12:46:57;9.30;99.90
29571;DHT22;16814;52.118;11.436;2023-04-16T12:49:23;9.40;99.90
29571;DHT22;16814;52.118;11.436;2023-04-16T12:51:50;9.50;99.90
29571;DHT22;16814;52.118;11.436;2023-04-16T12:54:18;9.50;99.90
29571;DHT22;16814;52.118;11.436;2023-04-16T12:56:43;9.50;99.90
29571;DHT22;16814;52.118;11.436;2023-04-16T12:59:12;9.50;99.90
29571;DHT22;16814;52.118;11.436;2023-04-16T13:01:40;9.60;99.90
29571;DHT22;16814;52.118;11.436;2023-04-16T13:04:05;9.60;99.90
29571;DHT22;16814;52.118;11.436;2023-04-16T13:06:39;9.60;99.90
29571;DHT22;16814;52.118;11.436;2023-04-16T13:09:06;9.50;99.90
29571;DHT22;16814;52.118;11.436;2023-04-16T13:11:33;9.50;99.90
29571;DHT22;16814;52.118;11.436;2023-04-16T13:14:01;9.50;99.90
29571;DHT22;16814;52.118;11.436;2023-04-16T13:16:29;9.50;99.90
29571;DHT22;16814;52.118;11.436;2023-04-16T13:18:54;9.50;99.90
29571;DHT22;16814;52.118;11.436;2023-04-16T13:21:22;9.50;99.90
29571;DHT22;16814;52.118;11.436;2023-04-16T13:23:48;9.40;99.90
29571;DHT22;16814;52.118;11.436;2023-04-16T13:26:15;9.30;99.90
29571;DHT22;16814;52.118;11.436;2023-04-16T13:28:43;9.30;99.90
29571;DHT22;16814;52.118;11.436;2023-04-16T13:31:10;9.40;99.90
29571;DHT22;16814;52.118;11.436;2023-04-16T13:33:37;9.30;99.90
29571;DHT22;16814;52.118;11.436;2023-04-16T13:36:06;9.40;99.90
29571;DHT22;16814;52.118;11.436;2023-04-16T13:38:31;9.30;99.90
29571;DHT22;16814;52.118;11.436;2023-04-16T13:40:58;9.40;99.90
29571;DHT22;16814;52.118;11.436;2023-04-16T13:43:25;9.40;99.90
29571;DHT22;16814;52.118;11.436;2023-04-16T13:45:51;9.40;99.90
29571;DHT22;16814;52.118;11.436;2023-04-16T13:48:18;9.40;99.90
29571;DHT22;16814;52.118;11.436;2023-04-16T13:50:45;9.30;99.90
29571;DHT22;16814;52.118;11.436;2023-04-16T13:53:13;9.40;99.90
29571;DHT22;16814;52.118;11.436;2023-04-16T13:55:41;9.30;99.90
29571;DHT22;16814;52.118;11.436;2023-04-16T13:58:08;9.20;99.90
29571;DHT22;16814;52.118;11.436;2023-04-16T14:00:36;9.20;99.90
29571;DHT22;16814;52.118;11.436;2023-04-16T14:03:03;9.40;99.90
29571;DHT22;16814;52.118;11.436;2023-04-16T14:05:34;9.20;99.90
29571;DHT22;16814;52.118;11.436;2023-04-16T14:08:00;9.20;99.90
29571;DHT22;16814;52.118;11.436;2023-04-16T14:10:27;9.20;99.90
29571;DHT22;16814;52.118;11.436;2023-04-16T14:12:54;9.30;99.90
29571;DHT22;16814;52.118;11.436;2023-04-16T14:15:22;9.20;99.90
29571;DHT22;16814;52.118;11.436;2023-04-16T14:17:54;9.30;99.90
29571;DHT22;16814;52.118;11.436;2023-04-16T14:20:23;9.40;99.90
29571;DHT22;16814;52.118;11.436;2023-04-16T14:22:49;9.60;99.90
29571;DHT22;16814;52.118;11.436;2023-04-16T14:25:17;9.60;99.90
29571;DHT22;16814;52.118;11.436;2023-04-16T14:27:44;9.70;99.90
29571;DHT22;16814;52.118;11.436;2023-04-16T14:30:10;9.70;99.90
29571;DHT22;16814;52.118;11.436;2023-04-16T14:32:37;9.80;99.90
29571;DHT22;16814;52.118;11.436;2023-04-16T14:35:03;9.90;99.90
29571;DHT22;16814;52.118;11.436;2023-04-16T14:37:30;9.90;99.90
29571;DHT22;16814;52.118;11.436;2023-04-16T14:39:58;10.10;99.90
29571;DHT22;16814;52.118;11.436;2023-04-16T14:42:27;10.10;99.90
29571;DHT22;16814;52.118;11.436;2023-04-16T14:44:55;10.00;99.90
29571;DHT22;16814;52.118;11.436;2023-04-16T14:47:20;10.10;99.90
29571;DHT22;16814;52.118;11.436;2023-04-16T14:49:49;10.20;99.90
29571;DHT22;16814;52.118;11.436;2023-04-16T14:52:17;10.20;99.90
29571;DHT22;16814;52.118;11.436;2023-04-16T14:54:42;10.30;99.90
29571;DHT22;16814;52.118;11.436;2023-04-16T14:57:09;10.20;99.90
29571;DHT22;16814;52.118;11.436;2023-04-16T14:59:37;10.30;99.90
29571;DHT22;16814;52.118;11.436;2023-04-16T15:02:04;10.30;99.90
29571;DHT22;16814;52.118;11.436;2023-04-16T15:04:31;10.30;99.90
29571;DHT22;16814;52.118;11.436;2023-04-16T15:06:58;10.40;99.90
29571;DHT22;16814;52.118;11.436;2023-04-16T15:09:26;10.50;99.90
29571;DHT22;16814;52.118;11.436;2023-04-16T15:11:53;10.40;99.90
29571;DHT22;16814;52.118;11.436;2023-04-16T15:14:22;10.50;99.90
29571;DHT22;16814;52.118;11.436;2023-04-16T15:16:49;10.50;99.90
29571;DHT22;16814;52.118;11.436;2023-04-16T15:19:16;10.40;99.90
29571;DHT22;16814;52.118;11.436;2023-04-16T15:21:43;10.40;99.90
29571;DHT22;16814;52.118;11.436;2023-04-16T15:24:10;10.30;99.90
29571;DHT22;16814;52.118;11.436;2023-04-16T15:26:37;10.30;99.90
29571;DHT22;16814;52.118;11.436;2023-04-16T15:29:10;10.20;99.90
29571;DHT22;16814;52.118;11.436;2023-04-16T15:31:37;10.20;99.90
29571;DHT22;16814;52.118;11.436;2023-04-16T15:34:05;10.10;99.90
29571;DHT22;16814;52.118;11.436;2023-04-16T15:36:32;10.00;99.90
29571;DHT22;16814;52.118;11.436;2023-04-16T15:38:59;10.00;99.90
29571;DHT22;16814;52.118;11.436;2023-04-16T15:41:28;9.90;99.90